createdAt,value
2023-10-29T00:00:09.417Z,110.00
2023-10-29T00:03:00.696Z,128.90
2023-10-29T00:05:28.893Z,114.00
2023-10-29T00:07:56.808Z,112.70
2023-10-29T00:10:24.844Z,157.50
2023-10-29T00:12:52.776Z,137.20
2023-10-29T00:15:20.908Z,108.10
2023-10-29T00:17:49.298Z,124.30
2023-10-29T00:20:17.312Z,120.60
2023-10-29T00:22:45.238Z,126.70
2023-10-29T00:25:13.216Z,126.90
2023-10-29T00:27:41.065Z,124.60
2023-10-29T00:30:09.594Z,107.30
2023-10-29T00:32:37.622Z,106.20
2023-10-29T00:35:06.213Z,124.60
2023-10-29T00:37:34.139Z,123.30
2023-10-29T00:40:03.380Z,125.00
2023-10-29T00:42:31.381Z,139.00
2023-10-29T00:44:59.316Z,124.80
2023-10-29T00:47:27.497Z,133.60
2023-10-29T00:49:55.668Z,119.80
2023-10-29T00:52:23.563Z,117.10
2023-10-29T00:54:51.780Z,124.40
2023-10-29T00:57:20.535Z,117.40
2023-10-29T00:59:49.081Z,120.20
2023-10-29T01:02:17.130Z,124.40
2023-10-29T01:04:46.434Z,114.50
2023-10-29T01:07:14.675Z,106.80
2023-10-29T01:09:43.338Z,127.70
2023-10-29T01:12:18.162Z,111.40
2023-10-29T01:14:46.786Z,110.50
2023-10-29T01:17:17.317Z,117.70
2023-10-29T01:19:45.270Z,123.00
2023-10-29T01:22:13.249Z,103.00
2023-10-29T01:24:41.483Z,116.70
2023-10-29T01:27:11.209Z,115.30
2023-10-29T01:29:39.472Z,108.20
2023-10-29T01:32:07.659Z,102.10
2023-10-29T01:34:35.735Z,108.50
2023-10-29T01:37:04.630Z,100.30
2023-10-29T01:39:32.605Z,122.10
2023-10-29T01:42:00.560Z,95.50
2023-10-29T01:44:28.491Z,101.80
2023-10-29T01:46:56.430Z,95.60
2023-10-29T01:49:24.317Z,106.70
2023-10-29T01:51:52.237Z,94.60
2023-10-29T01:54:20.153Z,92.60
2023-10-29T01:56:48.076Z,79.40
2023-10-29T01:59:16.340Z,84.20
2023-10-29T02:01:44.499Z,78.80
2023-10-29T02:04:12.776Z,86.90
2023-10-29T02:06:41.151Z,80.20
2023-10-29T02:09:10.691Z,86.90
2023-10-29T02:11:40.252Z,76.40
2023-10-29T02:14:08.752Z,76.00
2023-10-29T02:16:38.382Z,62.80
2023-10-29T02:19:06.448Z,65.50
2023-10-29T02:21:36.004Z,61.40
2023-10-29T02:24:04.404Z,69.20
2023-10-29T02:26:32.395Z,61.90
2023-10-29T02:29:01.510Z,60.40
2023-10-29T02:31:29.453Z,58.10
2023-10-29T02:33:57.391Z,64.50
2023-10-29T02:36:25.233Z,59.60
2023-10-29T02:38:53.111Z,55.00
2023-10-29T02:41:22.046Z,64.70
2023-10-29T02:43:50.601Z,55.90
2023-10-29T02:46:19.668Z,52.30
2023-10-29T02:48:47.709Z,48.50
2023-10-29T02:51:15.622Z,62.60
2023-10-29T02:53:43.608Z,58.20
2023-10-29T02:56:11.635Z,47.60
2023-10-29T02:58:39.598Z,52.00
2023-10-29T03:01:09.921Z,45.30
2023-10-29T03:03:39.053Z,52.20
2023-10-29T03:06:09.224Z,57.50
2023-10-29T03:08:37.843Z,48.00
2023-10-29T03:11:05.922Z,54.10
2023-10-29T03:13:33.835Z,48.50
2023-10-29T03:16:01.894Z,48.70
2023-10-29T03:18:30.810Z,59.10
2023-10-29T03:20:58.988Z,45.70
2023-10-29T03:23:26.997Z,44.50
2023-10-29T03:26:03.365Z,45.40
2023-10-29T03:28:31.295Z,55.60
2023-10-29T03:30:59.711Z,50.30
2023-10-29T03:33:28.100Z,62.30
2023-10-29T03:35:56.120Z,41.40
2023-10-29T03:38:24.037Z,41.80
2023-10-29T03:40:52.025Z,39.80
2023-10-29T03:43:19.946Z,47.30
2023-10-29T03:45:48.044Z,47.70
2023-10-29T03:48:16.829Z,42.30
2023-10-29T03:50:45.047Z,41.30
2023-10-29T03:53:12.957Z,47.00
2023-10-29T03:55:41.032Z,45.20
2023-10-29T03:58:08.949Z,43.40
2023-10-29T04:00:36.858Z,44.30
2023-10-29T04:03:04.853Z,39.60
2023-10-29T04:05:36.011Z,42.80
2023-10-29T04:08:04.435Z,43.20
2023-10-29T04:10:32.352Z,42.60
2023-10-29T04:13:00.648Z,45.10
2023-10-29T04:15:28.663Z,44.20
2023-10-29T04:17:56.801Z,43.90
2023-10-29T04:20:24.672Z,41.50
2023-10-29T04:22:52.647Z,44.90
2023-10-29T04:25:20.506Z,36.80
2023-10-29T04:27:48.479Z,42.80
2023-10-29T04:30:16.549Z,44.10
2023-10-29T04:32:44.728Z,43.20
2023-10-29T04:35:12.696Z,44.20
2023-10-29T04:37:40.636Z,40.70
2023-10-29T04:40:09.878Z,46.80
2023-10-29T04:42:37.811Z,43.70
2023-10-29T04:45:06.252Z,48.60
2023-10-29T04:47:34.319Z,51.60
2023-10-29T04:50:02.899Z,74.90
2023-10-29T04:52:30.807Z,67.20
2023-10-29T04:54:58.791Z,66.70
2023-10-29T04:57:26.697Z,65.50
2023-10-29T04:59:54.826Z,64.50
2023-10-29T05:02:23.973Z,52.70
2023-10-29T05:04:52.255Z,62.30
2023-10-29T05:07:20.874Z,51.70
2023-10-29T05:09:48.949Z,55.20
2023-10-29T05:12:16.829Z,63.20
2023-10-29T05:14:44.831Z,53.90
2023-10-29T05:17:12.725Z,63.70
2023-10-29T05:19:40.802Z,54.70
2023-10-29T05:22:08.984Z,54.80
2023-10-29T05:24:36.986Z,50.80
2023-10-29T05:27:04.993Z,48.70
2023-10-29T05:29:34.118Z,55.90
2023-10-29T05:32:02.300Z,52.80
2023-10-29T05:34:30.264Z,49.70
2023-10-29T05:36:58.240Z,58.70
2023-10-29T05:39:26.204Z,52.00
2023-10-29T05:41:54.620Z,49.90
2023-10-29T05:44:22.628Z,49.40
2023-10-29T05:46:50.506Z,46.10
2023-10-29T05:49:18.370Z,46.50
2023-10-29T05:51:46.296Z,38.50
2023-10-29T05:54:14.236Z,40.10
2023-10-29T05:56:42.262Z,42.30
2023-10-29T05:59:10.573Z,47.20
2023-10-29T06:01:39.802Z,49.40
2023-10-29T06:04:08.000Z,39.70
2023-10-29T06:06:36.090Z,35.80
2023-10-29T06:09:13.318Z,44.10
2023-10-29T06:11:45.450Z,42.90
2023-10-29T06:14:13.389Z,44.10
2023-10-29T06:16:41.262Z,39.30
2023-10-29T06:19:09.692Z,35.80
2023-10-29T06:21:37.990Z,38.60
2023-10-29T06:24:07.750Z,40.00
2023-10-29T06:26:36.030Z,33.30
2023-10-29T06:29:04.170Z,37.30
2023-10-29T06:31:34.261Z,35.00
2023-10-29T06:34:03.364Z,37.50
2023-10-29T06:36:31.285Z,33.70
2023-10-29T06:39:00.596Z,47.90
2023-10-29T06:41:28.813Z,38.40
2023-10-29T06:43:57.258Z,40.00
2023-10-29T06:46:25.831Z,37.90
2023-10-29T06:48:53.896Z,34.00
2023-10-29T06:51:22.050Z,33.50
2023-10-29T06:53:50.138Z,36.20
2023-10-29T06:56:18.112Z,31.60
2023-10-29T06:58:46.177Z,33.30
2023-10-29T07:01:14.831Z,36.50
2023-10-29T07:03:43.883Z,35.80
2023-10-29T07:06:15.257Z,38.40
2023-10-29T07:08:46.405Z,40.50
2023-10-29T07:11:14.585Z,38.60
2023-10-29T07:13:43.431Z,40.90
2023-10-29T07:16:11.887Z,42.60
2023-10-29T07:18:40.377Z,49.60
2023-10-29T07:21:08.389Z,48.80
2023-10-29T07:23:36.347Z,57.40
2023-10-29T07:26:04.457Z,52.80
2023-10-29T07:28:32.387Z,57.70
2023-10-29T07:31:00.438Z,58.10
2023-10-29T07:33:28.463Z,60.80
2023-10-29T07:35:56.560Z,55.80
2023-10-29T07:38:24.712Z,59.70
2023-10-29T07:40:52.800Z,53.90
2023-10-29T07:43:20.748Z,57.50
2023-10-29T07:45:53.017Z,55.90
2023-10-29T07:48:22.694Z,58.20
2023-10-29T07:50:52.403Z,50.60
2023-10-29T07:53:20.482Z,44.40
2023-10-29T07:55:48.443Z,47.60
2023-10-29T07:58:16.682Z,43.40
2023-10-29T08:00:44.986Z,49.90
2023-10-29T08:03:14.081Z,39.50
2023-10-29T08:05:43.189Z,35.70
2023-10-29T08:08:11.182Z,39.00
2023-10-29T08:10:39.172Z,36.40
2023-10-29T08:13:10.657Z,37.50
2023-10-29T08:15:38.903Z,36.80
2023-10-29T08:18:07.760Z,31.20
2023-10-29T08:20:36.199Z,28.20
2023-10-29T08:23:04.223Z,26.70
2023-10-29T08:25:32.341Z,24.10
2023-10-29T08:28:00.320Z,25.80
2023-10-29T08:30:28.327Z,21.80
2023-10-29T08:32:57.432Z,24.90
2023-10-29T08:35:25.709Z,21.60
2023-10-29T08:37:54.337Z,19.20
2023-10-29T08:40:22.880Z,22.00
2023-10-29T08:42:50.892Z,23.90
2023-10-29T08:45:31.020Z,23.10
2023-10-29T08:48:09.090Z,17.50
2023-10-29T08:50:37.224Z,20.00
2023-10-29T08:53:05.169Z,23.40
2023-10-29T08:55:36.894Z,21.90
2023-10-29T08:58:04.789Z,17.40
2023-10-29T09:00:45.365Z,17.30
2023-10-29T09:03:16.306Z,16.90
2023-10-29T09:05:45.229Z,16.70
2023-10-29T09:08:13.609Z,23.70
2023-10-29T09:10:44.410Z,19.60
2023-10-29T09:13:12.778Z,14.40
2023-10-29T09:15:41.450Z,13.90
2023-10-29T09:18:09.847Z,18.90
2023-10-29T09:20:39.609Z,14.70
2023-10-29T09:23:07.621Z,15.30
2023-10-29T09:25:35.602Z,18.40
2023-10-29T09:28:06.807Z,14.90
2023-10-29T09:30:34.928Z,21.70
2023-10-29T09:33:03.093Z,15.90
2023-10-29T09:35:31.770Z,11.70
2023-10-29T09:37:59.738Z,13.00
2023-10-29T09:40:27.748Z,15.50
2023-10-29T09:43:00.860Z,12.70
2023-10-29T09:45:29.647Z,11.80
2023-10-29T09:48:00.991Z,11.00
2023-10-29T09:50:29.101Z,10.20
2023-10-29T09:52:59.583Z,11.20
2023-10-29T09:55:29.223Z,10.00
2023-10-29T09:57:58.199Z,11.30
2023-10-29T10:00:27.149Z,16.10
2023-10-29T10:02:58.117Z,10.70
2023-10-29T10:05:29.772Z,8.60
2023-10-29T10:07:58.271Z,10.20
2023-10-29T10:10:42.365Z,8.40
2023-10-29T10:13:12.132Z,10.10
2023-10-29T10:15:40.604Z,8.10
2023-10-29T10:18:08.725Z,9.70
2023-10-29T10:20:37.517Z,6.50
2023-10-29T10:23:10.445Z,11.20
2023-10-29T10:25:39.406Z,8.70
2023-10-29T10:28:08.170Z,27.90
2023-10-29T10:30:39.924Z,6.80
2023-10-29T10:33:12.945Z,6.90
2023-10-29T10:35:44.251Z,8.70
2023-10-29T10:38:17.113Z,7.80
2023-10-29T10:43:20.671Z,6.40
2023-10-29T10:45:52.332Z,7.20
2023-10-29T10:48:21.364Z,8.50
2023-10-29T10:50:52.406Z,9.10
2023-10-29T10:53:20.610Z,7.20
2023-10-29T10:56:02.222Z,7.20
2023-10-29T11:01:02.027Z,8.90
2023-10-29T11:03:34.351Z,5.20
2023-10-29T11:06:04.209Z,6.10
2023-10-29T11:08:32.431Z,7.00
2023-10-29T11:11:01.812Z,7.20
2023-10-29T11:13:30.300Z,7.50
2023-10-29T11:15:58.335Z,8.60
2023-10-29T11:18:33.241Z,8.70
2023-10-29T11:21:05.021Z,6.80
2023-10-29T11:23:34.402Z,5.40
2023-10-29T11:26:24.207Z,6.80
2023-10-29T11:28:56.485Z,8.30
2023-10-29T11:31:26.380Z,7.70
2023-10-29T11:33:57.602Z,5.00
2023-10-29T11:36:39.108Z,8.30
2023-10-29T11:39:16.479Z,6.40
2023-10-29T11:41:47.004Z,11.90
2023-10-29T11:44:31.582Z,7.20
2023-10-29T11:46:59.737Z,7.40
2023-10-29T11:49:29.406Z,6.20
2023-10-29T11:52:03.183Z,7.50
2023-10-29T11:54:33.806Z,7.20
2023-10-29T11:57:05.570Z,5.00
2023-10-29T11:59:34.022Z,6.50
2023-10-29T12:02:02.062Z,9.10
2023-10-29T12:04:31.618Z,5.10
2023-10-29T12:07:00.745Z,7.00
2023-10-29T12:09:28.855Z,6.50
2023-10-29T12:11:57.319Z,6.40
2023-10-29T12:14:45.224Z,5.10
2023-10-29T12:17:15.362Z,8.90
2023-10-29T12:19:46.560Z,6.10
2023-10-29T12:25:05.235Z,6.40
2023-10-29T12:27:35.491Z,7.40
2023-10-29T12:30:10.283Z,11.70
2023-10-29T12:32:38.648Z,5.80
2023-10-29T12:35:07.976Z,6.00
2023-10-29T12:37:36.475Z,7.20
2023-10-29T12:40:06.654Z,10.30
2023-10-29T12:42:53.667Z,6.00
2023-10-29T12:45:33.135Z,38.30
2023-10-29T12:48:17.341Z,16.10
2023-10-29T12:50:53.245Z,7.10
2023-10-29T12:53:30.183Z,6.10
2023-10-29T12:56:02.757Z,5.90
2023-10-29T12:58:33.837Z,7.10
2023-10-29T13:01:03.885Z,5.90
2023-10-29T13:03:32.344Z,6.30
2023-10-29T13:06:00.565Z,5.90
2023-10-29T13:08:28.706Z,9.10
2023-10-29T13:10:57.466Z,17.50
2023-10-29T13:13:26.521Z,6.90
2023-10-29T13:15:54.510Z,11.80
2023-10-29T13:18:22.769Z,56.80
2023-10-29T13:21:03.389Z,8.40
2023-10-29T13:23:31.513Z,9.40
2023-10-29T13:25:59.432Z,7.60
2023-10-29T13:28:27.351Z,6.40
2023-10-29T13:30:56.279Z,9.00
2023-10-29T13:33:25.537Z,5.90
2023-10-29T13:35:53.850Z,9.50
2023-10-29T13:38:22.036Z,17.00
2023-10-29T13:40:50.076Z,7.80
2023-10-29T13:43:24.134Z,7.10
2023-10-29T13:46:04.020Z,10.40
2023-10-29T13:48:32.536Z,8.60
2023-10-29T13:51:06.243Z,8.20
2023-10-29T13:53:34.596Z,7.30
2023-10-29T13:56:10.911Z,70.40
2023-10-29T13:58:41.372Z,11.70
2023-10-29T14:01:23.881Z,15.60
2023-10-29T14:03:53.514Z,6.70
2023-10-29T14:06:24.606Z,8.80
2023-10-29T14:08:52.904Z,11.60
2023-10-29T14:11:21.360Z,5.70
2023-10-29T14:13:51.046Z,6.10
2023-10-29T14:16:19.659Z,9.70
2023-10-29T14:18:59.038Z,5.70
2023-10-29T14:21:30.966Z,6.80
2023-10-29T14:23:59.250Z,6.40
2023-10-29T14:26:27.244Z,9.20
2023-10-29T14:28:56.029Z,8.80
2023-10-29T14:31:24.146Z,9.50
2023-10-29T14:33:52.141Z,6.70
2023-10-29T14:36:25.665Z,7.60
2023-10-29T14:38:53.608Z,11.50
2023-10-29T14:41:21.576Z,8.40
2023-10-29T14:43:49.517Z,40.80
2023-10-29T14:46:17.428Z,8.40
2023-10-29T14:48:45.366Z,9.90
2023-10-29T14:51:13.500Z,8.70
2023-10-29T14:53:41.374Z,7.20
2023-10-29T14:56:09.484Z,9.40
2023-10-29T14:58:37.728Z,10.00
2023-10-29T15:01:09.087Z,6.60
2023-10-29T15:03:37.308Z,8.60
2023-10-29T15:06:12.132Z,8.90
2023-10-29T15:08:40.606Z,8.70
2023-10-29T15:11:08.596Z,10.20
2023-10-29T15:13:45.904Z,7.40
2023-10-29T15:16:14.922Z,7.20
2023-10-29T15:18:42.963Z,6.70
2023-10-29T15:21:15.507Z,8.70
2023-10-29T15:23:43.471Z,9.00
2023-10-29T15:26:17.711Z,7.60
2023-10-29T15:28:48.006Z,9.20
2023-10-29T15:31:16.440Z,6.90
2023-10-29T15:33:45.068Z,9.60
2023-10-29T15:36:13.257Z,9.80
2023-10-29T15:38:42.745Z,7.90
2023-10-29T15:41:11.086Z,9.00
2023-10-29T15:43:39.344Z,9.40
2023-10-29T15:46:09.528Z,7.60
2023-10-29T15:48:38.670Z,8.40
2023-10-29T15:51:09.637Z,9.40
2023-10-29T15:53:40.497Z,8.40
2023-10-29T15:56:11.858Z,10.60
2023-10-29T15:58:39.901Z,8.60
2023-10-29T16:01:19.536Z,7.40
2023-10-29T16:03:48.684Z,9.60
2023-10-29T16:06:16.636Z,8.60
2023-10-29T16:08:44.622Z,13.60
2023-10-29T16:11:23.490Z,8.90
2023-10-29T16:13:51.663Z,12.10
2023-10-29T16:16:20.975Z,10.40
2023-10-29T16:18:49.081Z,11.00
2023-10-29T16:21:17.110Z,9.10
2023-10-29T16:23:45.237Z,8.30
2023-10-29T16:26:13.163Z,10.10
2023-10-29T16:28:41.160Z,9.00
2023-10-29T16:31:09.018Z,11.40
2023-10-29T16:33:37.076Z,9.40
2023-10-29T16:36:05.972Z,11.70
2023-10-29T16:38:33.927Z,21.00
2023-10-29T16:41:05.295Z,9.90
2023-10-29T16:43:33.322Z,54.60
2023-10-29T16:46:01.697Z,16.30
2023-10-29T16:48:29.671Z,13.00
2023-10-29T16:51:03.293Z,9.90
2023-10-29T16:53:31.976Z,11.80
2023-10-29T16:56:08.030Z,8.70
2023-10-29T16:58:36.429Z,11.80
2023-10-29T17:01:04.737Z,11.80
2023-10-29T17:03:32.938Z,9.00
2023-10-29T17:06:05.025Z,10.30
2023-10-29T17:08:32.964Z,13.80
2023-10-29T17:11:00.955Z,11.60
2023-10-29T17:13:28.994Z,12.70
2023-10-29T17:16:03.196Z,11.30
2023-10-29T17:18:32.127Z,25.50
2023-10-29T17:21:01.839Z,13.70
2023-10-29T17:23:29.925Z,11.30
2023-10-29T17:25:58.227Z,14.80
2023-10-29T17:28:26.853Z,9.50
2023-10-29T17:30:55.359Z,11.70
2023-10-29T17:33:23.429Z,10.80
2023-10-29T17:35:51.529Z,11.00
2023-10-29T17:38:19.472Z,13.30
2023-10-29T17:40:47.356Z,10.40
2023-10-29T17:43:15.473Z,13.70
2023-10-29T17:45:44.871Z,11.10
2023-10-29T17:48:14.109Z,13.30
2023-10-29T17:50:42.962Z,11.60
2023-10-29T17:53:11.279Z,12.20
2023-10-29T17:55:39.347Z,13.90
2023-10-29T17:58:07.267Z,9.80
2023-10-29T18:00:35.169Z,9.20
2023-10-29T18:03:03.278Z,10.00
2023-10-29T18:05:31.321Z,12.90
2023-10-29T18:07:59.258Z,9.10
2023-10-29T18:10:27.258Z,10.00
2023-10-29T18:12:55.152Z,9.80
2023-10-29T18:15:23.120Z,9.80
2023-10-29T18:17:51.055Z,11.40
2023-10-29T18:20:19.032Z,9.60
2023-10-29T18:22:48.183Z,9.80
2023-10-29T18:25:16.212Z,8.80
2023-10-29T18:27:44.122Z,11.40
2023-10-29T18:30:14.083Z,12.80
2023-10-29T18:32:42.671Z,10.80
2023-10-29T18:35:10.631Z,11.70
2023-10-29T18:37:38.602Z,10.70
2023-10-29T18:40:07.737Z,9.00
2023-10-29T18:42:35.609Z,8.50
2023-10-29T18:45:04.113Z,9.70
2023-10-29T18:47:32.139Z,11.00
2023-10-29T18:50:03.939Z,11.50
2023-10-29T18:52:32.974Z,12.10
2023-10-29T18:55:00.881Z,10.30
2023-10-29T18:57:28.991Z,11.50
2023-10-29T18:59:57.409Z,11.60
2023-10-29T19:02:25.495Z,32.70
2023-10-29T19:04:53.403Z,11.70
2023-10-29T19:07:21.336Z,10.40
2023-10-29T19:09:50.633Z,11.30
2023-10-29T19:12:18.645Z,10.90
2023-10-29T19:14:47.200Z,10.40
2023-10-29T19:17:15.204Z,11.90
2023-10-29T19:19:43.116Z,8.80
2023-10-29T19:22:12.621Z,9.60
2023-10-29T19:24:40.722Z,9.50
2023-10-29T19:27:09.818Z,8.20
2023-10-29T19:29:37.809Z,9.50
2023-10-29T19:32:06.189Z,10.60
2023-10-29T19:34:34.139Z,43.90
2023-10-29T19:37:02.114Z,9.20
2023-10-29T19:39:31.078Z,10.10
2023-10-29T19:41:59.109Z,8.80
2023-10-29T19:44:27.094Z,9.10
2023-10-29T19:46:57.161Z,7.60
2023-10-29T19:49:24.977Z,7.30
2023-10-29T19:51:52.912Z,9.20
2023-10-29T19:54:20.836Z,10.60
2023-10-29T19:56:48.763Z,8.20
2023-10-29T19:59:16.694Z,10.30
2023-10-29T20:01:44.631Z,10.10
2023-10-29T20:04:12.962Z,10.80
2023-10-29T20:06:41.079Z,14.60
2023-10-29T20:09:11.602Z,9.00
2023-10-29T20:11:40.404Z,7.30
2023-10-29T20:14:09.478Z,8.40
2023-10-29T20:16:37.762Z,9.00
2023-10-29T20:19:05.992Z,8.10
2023-10-29T20:21:34.039Z,9.90
2023-10-29T20:24:03.666Z,10.00
2023-10-29T20:26:31.795Z,11.40
2023-10-29T20:28:59.766Z,10.10
2023-10-29T20:31:27.744Z,9.20
2023-10-29T20:33:55.785Z,7.80
2023-10-29T20:36:25.354Z,13.60
2023-10-29T20:38:53.268Z,13.70
2023-10-29T20:41:21.308Z,28.70
2023-10-29T20:43:49.507Z,12.80
2023-10-29T20:46:17.585Z,11.60
2023-10-29T20:48:47.646Z,9.40
2023-10-29T20:51:15.649Z,10.70
2023-10-29T20:53:43.596Z,11.00
2023-10-29T20:56:14.281Z,11.50
2023-10-29T20:58:42.267Z,8.10
2023-10-29T21:01:10.297Z,9.40
2023-10-29T21:03:38.470Z,8.50
2023-10-29T21:06:06.794Z,10.00
2023-10-29T21:08:34.662Z,7.30
2023-10-29T21:11:09.579Z,11.50
2023-10-29T21:13:37.664Z,72.70
2023-10-29T21:16:08.974Z,10.40
2023-10-29T21:18:37.102Z,8.40
2023-10-29T21:21:05.363Z,23.10
2023-10-29T21:23:33.389Z,15.20
2023-10-29T21:26:01.192Z,7.90
2023-10-29T21:28:29.225Z,11.10
2023-10-29T21:30:57.422Z,12.30
2023-10-29T21:33:25.608Z,14.20
2023-10-29T21:35:53.597Z,9.20
2023-10-29T21:38:22.014Z,9.70
2023-10-29T21:40:50.106Z,7.90
2023-10-29T21:43:18.026Z,7.90
2023-10-29T21:45:46.051Z,7.60
2023-10-29T21:48:14.099Z,16.50
2023-10-29T21:50:42.556Z,7.90
2023-10-29T21:53:11.376Z,23.30
2023-10-29T21:55:39.411Z,7.80
2023-10-29T21:58:10.060Z,8.50
2023-10-29T22:00:38.329Z,6.80
2023-10-29T22:03:07.873Z,11.30
2023-10-29T22:05:35.921Z,35.00
2023-10-29T22:08:05.411Z,10.80
2023-10-29T22:10:33.571Z,12.40
2023-10-29T22:13:01.531Z,8.40
2023-10-29T22:15:29.526Z,9.30
2023-10-29T22:17:57.679Z,9.00
2023-10-29T22:20:26.825Z,6.70
2023-10-29T22:22:55.034Z,15.30
2023-10-29T22:25:23.026Z,10.10
2023-10-29T22:27:51.081Z,8.30
2023-10-29T22:30:19.233Z,9.50
2023-10-29T22:32:47.164Z,10.00
2023-10-29T22:35:15.319Z,12.80
2023-10-29T22:37:43.300Z,11.20
2023-10-29T22:40:12.805Z,8.70
2023-10-29T22:42:40.861Z,23.40
2023-10-29T22:45:09.332Z,19.20
2023-10-29T22:47:40.180Z,12.10
2023-10-29T22:50:08.647Z,9.40
2023-10-29T22:52:36.780Z,10.80
2023-10-29T22:55:05.149Z,15.80
2023-10-29T22:57:33.171Z,8.80
2023-10-29T23:00:01.208Z,12.00
2023-10-29T23:02:29.636Z,12.40
2023-10-29T23:04:57.701Z,11.30
2023-10-29T23:07:26.421Z,10.40
2023-10-29T23:09:56.980Z,12.90
2023-10-29T23:12:27.514Z,11.90
2023-10-29T23:14:55.676Z,10.30
2023-10-29T23:17:26.264Z,14.40
2023-10-29T23:19:54.353Z,12.30
2023-10-29T23:22:22.386Z,20.20
2023-10-29T23:24:50.378Z,23.70
2023-10-29T23:27:18.350Z,21.30
2023-10-29T23:29:47.153Z,17.50
2023-10-29T23:32:15.276Z,16.30
2023-10-29T23:34:43.243Z,18.40
2023-10-29T23:37:11.468Z,11.50
2023-10-29T23:39:39.444Z,14.10
2023-10-29T23:42:07.569Z,30.40
2023-10-29T23:44:35.477Z,12.50
2023-10-29T23:47:03.930Z,12.30
2023-10-29T23:49:31.945Z,8.50
2023-10-29T23:52:00.098Z,11.20
2023-10-29T23:54:28.131Z,7.20
2023-10-29T23:56:56.152Z,12.40
2023-10-29T23:59:24.252Z,8.70
